OMDB

Dubai International Airport

Dubai, United Arab Emirates
METAR OMDB 170700Z 21007KT 160V280 CAVOK 27/14 Q1016 NOSIG
Observed Flight Rules
Jan-17 @ 07:00 UTC (25 minutes ago) Visual Flight Rules
Wind Visibility Clouds
210° at 7 knots 10,000+ meters
  • Clear skies
Temperatures Readings
Current 27°C / 81°F
Dewpoint 14°C / 57°F
Humidity 45%
Altimeter 30" Hg
Pressure 1015.92 hPa
Elevation 5
METAR OMDB 170700Z 21007KT 160V280 CAVOK 27/14 Q1016 NOSIG
Observed Flight Rules
Jan-17 @ 07:00 UTC
(25 minutes ago)
VFR
Wind Visibility
210° at 7 knots 10,000+ meters
Clouds
  • Clear skies
Temperature Dewpoint
27°C / 81°F 14°C / 57°F
Humidity Altimeter Pressure
45% 30" Hg 1015.92 hPa